createdAt,value
2022-08-17T00:01:00.697Z,101549
2022-08-17T00:01:57.576Z,101545
2022-08-17T00:03:04.528Z,101548
2022-08-17T00:03:57.668Z,101551
2022-08-17T00:04:56.972Z,101548
2022-08-17T00:06:02.687Z,101548
2022-08-17T00:06:57.459Z,101546
2022-08-17T00:07:57.053Z,101543
2022-08-17T00:08:59.940Z,101544
2022-08-17T00:09:57.723Z,101543
2022-08-17T00:10:57.747Z,101541
2022-08-17T00:12:41.414Z,101541
2022-08-17T00:12:57.003Z,101544
2022-08-17T00:14:01.118Z,101546
2022-08-17T00:14:56.954Z,101550
2022-08-17T00:16:00.027Z,101550
2022-08-17T00:16:57.791Z,101552
2022-08-17T00:17:57.397Z,101555
2022-08-17T00:19:06.904Z,101559
2022-08-17T00:19:57.045Z,101559
2022-08-17T00:22:31.531Z,101551
2022-08-17T00:23:05.906Z,101549
2022-08-17T00:23:56.983Z,101547
2022-08-17T00:25:57.343Z,101546
2022-08-17T00:26:57.015Z,101544
2022-08-17T00:27:56.943Z,101545
2022-08-17T00:28:57.175Z,101552
2022-08-17T00:29:57.002Z,101550
2022-08-17T00:30:57.083Z,101551
2022-08-17T00:31:56.938Z,101553
2022-08-17T00:33:11.876Z,101553
2022-08-17T00:33:56.996Z,101552
2022-08-17T00:34:56.974Z,101554
2022-08-17T00:35:58.679Z,101555
2022-08-17T00:36:56.922Z,101552
2022-08-17T00:37:57.030Z,101554
2022-08-17T00:38:56.997Z,101553
2022-08-17T00:41:57.162Z,101544
2022-08-17T00:42:57.206Z,101543
2022-08-17T00:44:00.545Z,101543
2022-08-17T00:44:57.161Z,101539
2022-08-17T00:45:58.098Z,101539
2022-08-17T00:46:57.197Z,101535
2022-08-17T00:47:56.957Z,101538
2022-08-17T00:48:57.418Z,101542
2022-08-17T00:49:57.012Z,101542
2022-08-17T00:51:02.390Z,101542
2022-08-17T00:52:11.933Z,101543
2022-08-17T00:52:59.188Z,101543
2022-08-17T00:54:07.510Z,101541
2022-08-17T00:54:57.663Z,101531
2022-08-17T00:57:03.223Z,101527
2022-08-17T00:58:00.943Z,101524
2022-08-17T00:58:57.357Z,101524
2022-08-17T01:00:02.355Z,101524
2022-08-17T01:00:57.302Z,101526
2022-08-17T01:01:58.159Z,101528
2022-08-17T01:03:03.015Z,101529
2022-08-17T01:03:59.260Z,101525
2022-08-17T01:04:57.516Z,101520
2022-08-17T01:06:01.595Z,101516
2022-08-17T01:06:58.784Z,101522
2022-08-17T01:07:57.662Z,101522
2022-08-17T01:08:59.084Z,101518
2022-08-17T01:09:57.049Z,101517
2022-08-17T01:11:02.398Z,101516
2022-08-17T01:12:57.540Z,101516
2022-08-17T01:13:57.029Z,101514
2022-08-17T01:14:56.994Z,101514
2022-08-17T01:15:58.819Z,101513
2022-08-17T01:16:57.300Z,101511
2022-08-17T01:17:56.970Z,101513
2022-08-17T01:20:59.349Z,101521
2022-08-17T01:22:07.175Z,101520
2022-08-17T01:22:57.189Z,101524
2022-08-17T01:23:57.214Z,101526
2022-08-17T01:25:01.877Z,101524
2022-08-17T01:25:59.176Z,101526
2022-08-17T01:27:57.140Z,101536
2022-08-17T01:28:57.433Z,101536
2022-08-17T01:30:00.153Z,101538
2022-08-17T01:30:59.417Z,101536
2022-08-17T01:32:00.334Z,101532
2022-08-17T01:32:57.004Z,101531
2022-08-17T01:33:59.707Z,101538
2022-08-17T01:34:57.746Z,101544
2022-08-17T01:35:56.980Z,101542
2022-08-17T01:36:57.678Z,101543
2022-08-17T01:37:56.870Z,101545
2022-08-17T01:38:56.961Z,101545
2022-08-17T01:40:03.348Z,101540
2022-08-17T01:41:06.580Z,101538
2022-08-17T01:42:04.815Z,101537
2022-08-17T01:43:01.079Z,101539
2022-08-17T01:44:03.151Z,101534
2022-08-17T01:45:01.711Z,101535
2022-08-17T01:46:03.480Z,101535
2022-08-17T01:46:57.002Z,101535
2022-08-17T01:47:57.172Z,101533
2022-08-17T01:48:57.984Z,101534
2022-08-17T01:49:56.876Z,101538
2022-08-17T01:50:57.083Z,101544
2022-08-17T01:51:57.613Z,101548
2022-08-17T01:53:02.522Z,101554
2022-08-17T01:54:57.036Z,101556
2022-08-17T01:56:03.452Z,101561
2022-08-17T01:56:56.905Z,101565
2022-08-17T01:57:58.162Z,101565
2022-08-17T01:58:57.876Z,101571
2022-08-17T01:59:56.939Z,101572
2022-08-17T02:01:00.720Z,101574
2022-08-17T02:01:57.019Z,101574
2022-08-17T02:02:57.235Z,101572
2022-08-17T02:04:00.834Z,101569
2022-08-17T02:04:56.860Z,101570
2022-08-17T02:05:57.459Z,101572
2022-08-17T02:06:56.882Z,101572
2022-08-17T02:08:00.638Z,101569
2022-08-17T02:10:56.932Z,101576
2022-08-17T02:11:57.852Z,101578
2022-08-17T02:12:57.102Z,101580
2022-08-17T02:14:56.951Z,101578
2022-08-17T02:15:57.674Z,101578
2022-08-17T02:16:56.896Z,101580
2022-08-17T02:17:56.969Z,101583
2022-08-17T02:18:56.919Z,101582
2022-08-17T02:19:57.117Z,101581
2022-08-17T02:20:57.680Z,101585
2022-08-17T02:21:56.967Z,101588
2022-08-17T02:22:57.008Z,101589
2022-08-17T02:23:57.638Z,101593
2022-08-17T02:24:59.469Z,101594
2022-08-17T02:25:59.947Z,101588
2022-08-17T02:26:56.878Z,101590
2022-08-17T02:27:56.971Z,101589
2022-08-17T02:29:57.177Z,101589
2022-08-17T02:31:01.156Z,101588
2022-08-17T02:31:58.698Z,101589
2022-08-17T02:32:57.394Z,101591
2022-08-17T02:34:03.734Z,101590
2022-08-17T02:34:58.127Z,101588
2022-08-17T02:35:58.063Z,101590
2022-08-17T02:37:57.084Z,101594
2022-08-17T02:39:58.688Z,101590
2022-08-17T02:40:58.611Z,101589
2022-08-17T02:42:02.951Z,101589
2022-08-17T02:42:57.603Z,101589
2022-08-17T02:43:56.860Z,101590
2022-08-17T02:44:56.988Z,101591
2022-08-17T02:45:57.061Z,101593
2022-08-17T02:46:57.062Z,101592
2022-08-17T02:47:57.084Z,101595
2022-08-17T02:48:57.016Z,101600
2022-08-17T02:50:56.848Z,101603
2022-08-17T02:51:58.762Z,101603
2022-08-17T02:54:39.131Z,101596
2022-08-17T02:54:56.863Z,101589
2022-08-17T02:55:56.909Z,101592
2022-08-17T02:56:56.918Z,101593
2022-08-17T02:57:57.611Z,101597
2022-08-17T02:58:56.903Z,101597
2022-08-17T02:59:56.827Z,101599
2022-08-17T03:00:56.832Z,101600
2022-08-17T03:01:57.039Z,101606
2022-08-17T03:02:58.204Z,101609
2022-08-17T03:03:57.263Z,101602
2022-08-17T03:04:56.894Z,101597
2022-08-17T03:05:56.954Z,101590
2022-08-17T03:06:56.854Z,101594
2022-08-17T03:07:57.783Z,101590
2022-08-17T03:08:57.192Z,101592
2022-08-17T03:09:56.870Z,101591
2022-08-17T03:10:57.079Z,101588
2022-08-17T03:12:04.397Z,101587
2022-08-17T03:12:57.017Z,101585
2022-08-17T03:13:56.994Z,101583
2022-08-17T03:14:56.830Z,101586
2022-08-17T03:15:56.919Z,101587
2022-08-17T03:17:57.607Z,101585
2022-08-17T03:18:57.298Z,101582
2022-08-17T03:19:56.935Z,101586
2022-08-17T03:20:59.326Z,101586
2022-08-17T03:21:58.255Z,101585
2022-08-17T03:23:01.742Z,101591
2022-08-17T03:24:56.975Z,101596
2022-08-17T03:25:57.256Z,101594
2022-08-17T03:27:57.489Z,101589
2022-08-17T03:28:56.936Z,101590
2022-08-17T03:29:56.801Z,101589
2022-08-17T03:30:57.061Z,101589
2022-08-17T03:31:56.832Z,101590
2022-08-17T03:35:57.136Z,101593
2022-08-17T03:36:56.825Z,101595
2022-08-17T03:38:00.890Z,101601
2022-08-17T03:38:56.899Z,101603
2022-08-17T03:39:57.045Z,101604
2022-08-17T03:40:59.712Z,101609
2022-08-17T03:42:07.903Z,101609
2022-08-17T03:42:57.727Z,101610
2022-08-17T03:43:56.785Z,101611
2022-08-17T03:44:58.679Z,101614
2022-08-17T03:46:06.434Z,101617
2022-08-17T03:48:06.145Z,101622
2022-08-17T03:49:06.387Z,101624
2022-08-17T03:50:06.134Z,101625
2022-08-17T03:51:11.464Z,101628
2022-08-17T03:52:07.795Z,101626
2022-08-17T03:53:06.721Z,101625
2022-08-17T03:54:08.001Z,101624
2022-08-17T03:55:06.134Z,101625
2022-08-17T03:57:06.722Z,101620
2022-08-17T03:57:56.893Z,101621
2022-08-17T03:58:56.795Z,101619
2022-08-17T04:00:57.313Z,101626
2022-08-17T04:02:00.013Z,101625
2022-08-17T04:02:56.817Z,101628
2022-08-17T04:05:56.906Z,101630
2022-08-17T04:07:57.115Z,101629
2022-08-17T04:08:56.835Z,101628
2022-08-17T04:09:58.364Z,101629
2022-08-17T04:11:57.458Z,101625
2022-08-17T04:14:57.327Z,101625
2022-08-17T04:16:56.745Z,101624
2022-08-17T04:19:57.097Z,101638
2022-08-17T04:20:57.237Z,101641
2022-08-17T04:22:59.955Z,101642
2022-08-17T04:24:57.299Z,101645
2022-08-17T04:25:57.461Z,101650
2022-08-17T04:26:56.787Z,101649
2022-08-17T04:27:58.223Z,101648
2022-08-17T04:28:57.026Z,101650
2022-08-17T04:29:56.771Z,101644
2022-08-17T04:30:56.905Z,101650
2022-08-17T04:31:56.804Z,101651
2022-08-17T04:33:10.963Z,101653
2022-08-17T04:33:57.041Z,101654
2022-08-17T04:34:56.749Z,101652
2022-08-17T04:36:00.032Z,101653
2022-08-17T04:36:56.759Z,101652
2022-08-17T04:37:57.488Z,101650
2022-08-17T04:38:58.292Z,101648
2022-08-17T04:40:06.113Z,101645
2022-08-17T04:41:07.287Z,101645
2022-08-17T04:43:03.171Z,101648
2022-08-17T04:43:58.683Z,101650
2022-08-17T04:44:56.766Z,101651
2022-08-17T04:45:59.345Z,101656
2022-08-17T04:46:56.837Z,101656
2022-08-17T04:47:56.810Z,101658
2022-08-17T04:48:58.515Z,101662
2022-08-17T04:49:56.828Z,101667
2022-08-17T04:52:57.171Z,101668
2022-08-17T04:54:00.451Z,101665
2022-08-17T04:54:57.026Z,101662
2022-08-17T04:55:59.233Z,101663
2022-08-17T04:56:56.792Z,101666
2022-08-17T04:57:57.021Z,101666
2022-08-17T04:58:59.259Z,101670
2022-08-17T04:59:56.822Z,101670
2022-08-17T05:00:56.913Z,101671
2022-08-17T05:01:56.801Z,101670
2022-08-17T05:02:57.547Z,101666
2022-08-17T05:03:59.696Z,101667
2022-08-17T05:05:56.802Z,101664
2022-08-17T05:06:56.765Z,101662
2022-08-17T05:07:59.163Z,101661
2022-08-17T05:08:58.072Z,101658
2022-08-17T05:09:56.749Z,101660
2022-08-17T05:10:56.776Z,101664
2022-08-17T05:11:56.775Z,101667
2022-08-17T05:13:01.629Z,101664
2022-08-17T05:13:58.661Z,101669
2022-08-17T05:14:56.789Z,101668
2022-08-17T05:16:56.850Z,101668
2022-08-17T05:17:57.029Z,101673
2022-08-17T05:18:58.773Z,101666
2022-08-17T05:19:56.732Z,101666
2022-08-17T05:20:57.044Z,101663
2022-08-17T05:21:56.740Z,101663
2022-08-17T05:22:59.886Z,101660
2022-08-17T05:23:58.711Z,101663
2022-08-17T05:24:56.795Z,101662
2022-08-17T05:25:58.429Z,101659
2022-08-17T05:26:56.743Z,101659
2022-08-17T05:27:57.880Z,101660
2022-08-17T05:29:00.558Z,101658
2022-08-17T05:29:56.785Z,101661
2022-08-17T05:30:58.375Z,101657
2022-08-17T05:31:56.974Z,101658
2022-08-17T05:33:00.457Z,101658
2022-08-17T05:33:57.071Z,101656
2022-08-17T05:35:00.722Z,101656
2022-08-17T05:35:58.728Z,101658
2022-08-17T05:36:56.755Z,101659
2022-08-17T05:37:57.287Z,101658
2022-08-17T05:38:56.811Z,101660
2022-08-17T05:39:56.828Z,101658
2022-08-17T05:40:58.685Z,101660
2022-08-17T05:41:56.753Z,101660
2022-08-17T05:43:06.743Z,101663
2022-08-17T05:43:56.839Z,101664
2022-08-17T05:44:59.008Z,101662
2022-08-17T05:46:03.802Z,101659
2022-08-17T05:47:00.109Z,101658
2022-08-17T05:47:56.793Z,101659
2022-08-17T05:49:03.755Z,101659
2022-08-17T05:49:57.198Z,101664
2022-08-17T05:51:01.315Z,101663
2022-08-17T05:52:14.013Z,101661
2022-08-17T05:53:06.574Z,101661
2022-08-17T05:54:02.052Z,101662
2022-08-17T05:55:04.301Z,101661
2022-08-17T05:56:11.615Z,101659
2022-08-17T05:57:05.535Z,101658
2022-08-17T05:58:10.720Z,101657
2022-08-17T05:59:02.125Z,101655
2022-08-17T06:00:11.036Z,101655
2022-08-17T06:01:10.824Z,101657
2022-08-17T06:02:08.820Z,101658
2022-08-17T06:03:14.673Z,101659
2022-08-17T06:04:02.015Z,101659
2022-08-17T06:05:14.691Z,101666
2022-08-17T06:06:01.943Z,101674
2022-08-17T06:07:07.461Z,101680
2022-08-17T06:08:03.268Z,101685
2022-08-17T06:09:01.610Z,101686
2022-08-17T06:10:08.899Z,101691
2022-08-17T06:11:00.984Z,101690
2022-08-17T06:12:08.922Z,101693
2022-08-17T06:13:13.836Z,101695
2022-08-17T06:14:11.406Z,101697
2022-08-17T06:15:12.897Z,101700
2022-08-17T06:16:34.183Z,101701
2022-08-17T06:17:03.059Z,101703
2022-08-17T06:18:08.415Z,101711
2022-08-17T06:19:01.597Z,101715
2022-08-17T06:20:00.417Z,101718
2022-08-17T06:21:02.535Z,101725
2022-08-17T06:21:58.693Z,101730
2022-08-17T06:23:05.500Z,101733
2022-08-17T06:24:07.337Z,101734
2022-08-17T06:25:02.500Z,101734
2022-08-17T06:26:04.784Z,101736
2022-08-17T06:27:07.558Z,101739
2022-08-17T06:28:02.694Z,101737
2022-08-17T06:29:02.982Z,101738
2022-08-17T06:31:01.400Z,101740
2022-08-17T06:32:59.990Z,101744
2022-08-17T06:33:58.531Z,101748
2022-08-17T06:34:58.040Z,101749
2022-08-17T06:36:02.820Z,101751
2022-08-17T06:37:09.525Z,101757
2022-08-17T06:38:09.372Z,101758
2022-08-17T06:39:05.133Z,101760
2022-08-17T06:40:11.246Z,101761
2022-08-17T06:41:02.436Z,101753
2022-08-17T06:42:06.600Z,101756
2022-08-17T06:43:12.761Z,101752
2022-08-17T06:44:08.443Z,101749
2022-08-17T06:45:08.323Z,101748
2022-08-17T06:46:11.848Z,101750
2022-08-17T06:47:04.021Z,101751
2022-08-17T06:48:00.940Z,101753
2022-08-17T06:49:08.076Z,101752
2022-08-17T06:50:01.269Z,101751
2022-08-17T06:51:04.296Z,101752
2022-08-17T06:52:03.044Z,101751
2022-08-17T06:53:04.121Z,101756
2022-08-17T06:54:05.871Z,101755
2022-08-17T06:55:00.463Z,101755
2022-08-17T06:56:05.057Z,101755
2022-08-17T06:57:10.602Z,101762
2022-08-17T06:58:15.822Z,101766
2022-08-17T06:58:59.322Z,101766
2022-08-17T07:00:07.764Z,101772
2022-08-17T07:00:59.810Z,101773
2022-08-17T07:01:57.145Z,101773
2022-08-17T07:06:03.885Z,101775
2022-08-17T07:07:11.934Z,101774
2022-08-17T07:08:03.588Z,101779
2022-08-17T07:09:01.876Z,101781
2022-08-17T07:10:00.785Z,101787
2022-08-17T07:13:09.467Z,101791
2022-08-17T07:15:11.390Z,101789
2022-08-17T07:16:06.836Z,101785
2022-08-17T07:16:59.554Z,101785
2022-08-17T07:18:59.518Z,101785
2022-08-17T07:20:06.403Z,101785
2022-08-17T07:21:08.534Z,101786
2022-08-17T07:22:14.156Z,101790
2022-08-17T07:23:04.764Z,101792
2022-08-17T07:24:26.219Z,101798
2022-08-17T07:24:59.793Z,101797
2022-08-17T07:26:07.016Z,101794
2022-08-17T07:27:09.519Z,101792
2022-08-17T07:28:00.910Z,101796
2022-08-17T07:28:57.173Z,101791
2022-08-17T07:30:08.143Z,101794
2022-08-17T07:30:56.718Z,101792
2022-08-17T07:31:57.574Z,101789
2022-08-17T07:33:01.786Z,101787
2022-08-17T07:34:14.569Z,101781
2022-08-17T07:35:10.737Z,101781
2022-08-17T07:35:59.470Z,101780
2022-08-17T07:37:05.353Z,101780
2022-08-17T07:38:05.293Z,101781
2022-08-17T07:38:58.508Z,101780
2022-08-17T07:40:15.235Z,101785
2022-08-17T07:42:03.738Z,101789
2022-08-17T07:43:57.757Z,101784
2022-08-17T07:44:58.129Z,101786
2022-08-17T07:46:22.653Z,101786
2022-08-17T07:47:06.774Z,101789
2022-08-17T07:48:06.078Z,101793
2022-08-17T07:49:07.718Z,101791
2022-08-17T07:49:56.745Z,101790
2022-08-17T07:51:00.345Z,101784
2022-08-17T07:52:47.318Z,101778
2022-08-17T07:52:56.785Z,101775
2022-08-17T07:54:14.085Z,101779
2022-08-17T07:54:56.919Z,101776
2022-08-17T07:55:56.725Z,101774
2022-08-17T07:57:00.160Z,101771
2022-08-17T07:57:59.046Z,101768
2022-08-17T07:59:14.602Z,101766
2022-08-17T08:01:05.266Z,101772
2022-08-17T08:02:14.997Z,101777
2022-08-17T08:03:58.303Z,101784
2022-08-17T08:05:06.652Z,101785
2022-08-17T08:06:02.118Z,101789
2022-08-17T08:07:01.528Z,101786
2022-08-17T08:08:00.243Z,101784
2022-08-17T08:09:00.676Z,101783
2022-08-17T08:10:06.353Z,101786
2022-08-17T08:11:08.231Z,101784
2022-08-17T08:11:56.820Z,101786
2022-08-17T08:13:05.950Z,101780
2022-08-17T08:13:58.617Z,101778
2022-08-17T08:15:00.807Z,101772
2022-08-17T08:16:07.201Z,101773
2022-08-17T08:16:59.335Z,101765
2022-08-17T08:17:59.765Z,101761
2022-08-17T08:18:59.765Z,101761
2022-08-17T08:21:02.838Z,101755
2022-08-17T08:22:11.713Z,101750
2022-08-17T08:23:11.563Z,101749
2022-08-17T08:24:09.865Z,101746
2022-08-17T08:25:07.482Z,101746
2022-08-17T08:26:01.276Z,101743
2022-08-17T08:27:12.940Z,101747
2022-08-17T08:28:05.335Z,101748
2022-08-17T08:29:01.534Z,101748
2022-08-17T08:30:05.157Z,101748
2022-08-17T08:31:14.613Z,101744
2022-08-17T08:34:58.959Z,101747
2022-08-17T08:35:06.867Z,101749
2022-08-17T08:38:10.805Z,101761
2022-08-17T08:40:02.031Z,101770
2022-08-17T08:42:09.794Z,101776
2022-08-17T08:43:12.760Z,101779
2022-08-17T08:44:08.803Z,101774
2022-08-17T08:45:04.396Z,101774
2022-08-17T08:46:05.662Z,101765
2022-08-17T08:47:00.483Z,101763
2022-08-17T08:48:52.910Z,101768
2022-08-17T08:49:12.172Z,101764
2022-08-17T08:50:37.666Z,101767
2022-08-17T08:51:00.559Z,101764
2022-08-17T08:51:58.990Z,101764
2022-08-17T08:53:12.965Z,101760
2022-08-17T08:54:05.448Z,101763
2022-08-17T08:55:09.211Z,101765
2022-08-17T08:56:03.627Z,101768
2022-08-17T08:57:24.289Z,101769
2022-08-17T08:58:06.624Z,101769
2022-08-17T08:59:07.401Z,101772
2022-08-17T09:00:14.851Z,101770
2022-08-17T09:00:59.265Z,101769
2022-08-17T09:02:04.129Z,101768
2022-08-17T09:03:14.620Z,101769
2022-08-17T09:04:21.761Z,101765
2022-08-17T09:05:14.680Z,101769
2022-08-17T09:06:37.785Z,101764
2022-08-17T09:07:03.201Z,101761
2022-08-17T09:08:04.653Z,101762
2022-08-17T09:10:09.225Z,101758
2022-08-17T09:12:03.917Z,101756
2022-08-17T09:14:07.507Z,101755
2022-08-17T09:15:10.863Z,101756
2022-08-17T09:16:07.808Z,101757
2022-08-17T09:17:06.499Z,101758
2022-08-17T09:18:59.112Z,101758
2022-08-17T09:19:08.713Z,101758
2022-08-17T09:20:04.857Z,101761
2022-08-17T09:21:01.898Z,101759
2022-08-17T09:22:02.723Z,101765
2022-08-17T09:23:04.101Z,101764
2022-08-17T09:24:07.125Z,101768
2022-08-17T09:25:01.081Z,101775
2022-08-17T09:29:04.054Z,101776
2022-08-17T09:30:05.011Z,101770
2022-08-17T09:31:03.531Z,101767
2022-08-17T09:31:59.784Z,101764
2022-08-17T09:33:59.792Z,101762
2022-08-17T09:35:10.659Z,101767
2022-08-17T09:38:11.185Z,101767
2022-08-17T09:40:08.597Z,101757
2022-08-17T09:41:08.079Z,101761
2022-08-17T09:46:01.965Z,101765
2022-08-17T09:48:00.039Z,101760
2022-08-17T09:49:07.346Z,101759
2022-08-17T09:54:14.737Z,101763
2022-08-17T09:55:00.194Z,101768
2022-08-17T09:56:13.645Z,101768
2022-08-17T09:57:29.195Z,101768
2022-08-17T09:58:05.356Z,101766
2022-08-17T09:59:17.099Z,101766
2022-08-17T10:00:17.402Z,101764
2022-08-17T10:01:03.690Z,101759
2022-08-17T10:02:11.663Z,101761
2022-08-17T10:03:16.279Z,101763
2022-08-17T10:04:11.514Z,101760
2022-08-17T10:05:12.158Z,101757
2022-08-17T10:06:00.182Z,101757
2022-08-17T10:07:05.773Z,101754
2022-08-17T10:08:09.473Z,101756
2022-08-17T10:09:07.560Z,101757
2022-08-17T10:09:59.653Z,101760
2022-08-17T10:11:06.678Z,101760
2022-08-17T10:12:17.743Z,101760
2022-08-17T10:13:00.914Z,101757
2022-08-17T10:14:03.419Z,101757
2022-08-17T10:15:07.976Z,101754
2022-08-17T10:16:08.280Z,101754
2022-08-17T10:17:11.378Z,101757
2022-08-17T10:18:14.549Z,101758
2022-08-17T10:19:14.011Z,101764
2022-08-17T10:21:18.647Z,101768
2022-08-17T10:22:32.625Z,101774
2022-08-17T10:23:16.671Z,101771
2022-08-17T10:24:11.087Z,101773
2022-08-17T10:25:22.449Z,101770
2022-08-17T10:26:15.499Z,101777
2022-08-17T10:27:00.896Z,101783
2022-08-17T10:28:01.907Z,101785
2022-08-17T10:29:03.050Z,101787
2022-08-17T10:30:01.691Z,101790
2022-08-17T10:31:30.996Z,101788
2022-08-17T10:32:03.681Z,101790
2022-08-17T10:33:01.648Z,101784
2022-08-17T10:34:13.094Z,101786
2022-08-17T10:35:04.235Z,101783
2022-08-17T10:36:11.338Z,101785
2022-08-17T10:37:11.815Z,101786
2022-08-17T10:38:15.510Z,101785
2022-08-17T10:39:10.470Z,101793
2022-08-17T10:40:12.352Z,101795
2022-08-17T10:41:07.822Z,101799
2022-08-17T10:42:00.859Z,101801
2022-08-17T10:43:02.856Z,101803
2022-08-17T10:44:39.280Z,101799
2022-08-17T10:48:06.358Z,101785
2022-08-17T10:49:14.474Z,101782
2022-08-17T10:49:57.762Z,101778
2022-08-17T10:51:07.800Z,101777
2022-08-17T10:51:59.057Z,101773
2022-08-17T10:52:56.541Z,101766
2022-08-17T10:53:59.063Z,101762
2022-08-17T10:56:58.982Z,101755
2022-08-17T10:58:14.744Z,101751
2022-08-17T11:02:05.256Z,101758
2022-08-17T11:04:01.399Z,101759
2022-08-17T11:06:12.809Z,101757
2022-08-17T11:07:12.008Z,101758
2022-08-17T11:08:14.365Z,101757
2022-08-17T11:09:05.207Z,101759
2022-08-17T11:10:13.688Z,101760
2022-08-17T11:11:06.961Z,101761
2022-08-17T11:12:06.945Z,101762
2022-08-17T11:13:09.407Z,101761
2022-08-17T11:14:06.335Z,101762
2022-08-17T11:15:12.414Z,101765
2022-08-17T11:16:09.666Z,101767
2022-08-17T11:17:14.764Z,101769
2022-08-17T11:18:05.438Z,101767
2022-08-17T11:19:14.570Z,101769
2022-08-17T11:20:09.151Z,101769
2022-08-17T11:21:05.109Z,101770
2022-08-17T11:22:09.143Z,101764
2022-08-17T11:23:14.854Z,101765
2022-08-17T11:24:13.152Z,101763
2022-08-17T11:25:07.759Z,101760
2022-08-17T11:26:04.084Z,101759
2022-08-17T11:28:07.193Z,101759
2022-08-17T11:30:02.765Z,101762
2022-08-17T11:36:12.677Z,101769
2022-08-17T11:38:03.184Z,101773
2022-08-17T11:40:13.705Z,101765
2022-08-17T11:42:06.072Z,101757
2022-08-17T11:43:07.681Z,101756
2022-08-17T11:44:12.565Z,101758
2022-08-17T11:44:58.391Z,101756
2022-08-17T11:46:12.134Z,101754
2022-08-17T11:47:23.516Z,101748
2022-08-17T11:50:27.112Z,101739
2022-08-17T11:51:18.635Z,101739
2022-08-17T11:52:05.374Z,101742
2022-08-17T11:52:56.720Z,101736
2022-08-17T11:54:30.570Z,101739
2022-08-17T11:56:06.278Z,101734
2022-08-17T11:56:58.410Z,101731
2022-08-17T12:00:58.531Z,101748
2022-08-17T12:03:14.467Z,101749
2022-08-17T12:04:07.109Z,101756
2022-08-17T12:06:04.101Z,101766
2022-08-17T12:07:09.323Z,101768
2022-08-17T12:08:07.213Z,101767
2022-08-17T12:09:02.932Z,101766
2022-08-17T12:09:57.546Z,101763
2022-08-17T12:12:57.153Z,101760
2022-08-17T12:13:59.536Z,101757
2022-08-17T12:15:10.122Z,101755
2022-08-17T12:15:58.123Z,101754
2022-08-17T12:18:59.722Z,101751
2022-08-17T12:21:15.567Z,101753
2022-08-17T12:22:04.318Z,101754
2022-08-17T12:26:01.819Z,101753
2022-08-17T12:26:59.585Z,101757
2022-08-17T12:28:06.895Z,101757
2022-08-17T12:29:01.129Z,101753
2022-08-17T12:29:56.787Z,101751
2022-08-17T12:31:12.482Z,101746
2022-08-17T12:31:56.640Z,101749
2022-08-17T12:32:57.289Z,101752
2022-08-17T12:34:57.268Z,101755
2022-08-17T12:36:00.780Z,101754
2022-08-17T12:37:02.117Z,101756
2022-08-17T12:39:12.926Z,101755
2022-08-17T12:40:01.561Z,101755
2022-08-17T12:42:02.357Z,101753
2022-08-17T12:43:01.208Z,101762
2022-08-17T12:44:56.905Z,101758
2022-08-17T12:45:59.622Z,101749
2022-08-17T12:48:07.958Z,101748
2022-08-17T12:49:14.384Z,101748
2022-08-17T12:51:02.560Z,101743
2022-08-17T12:53:01.788Z,101732
2022-08-17T12:54:59.813Z,101722
2022-08-17T12:56:57.660Z,101715
2022-08-17T12:58:56.852Z,101709
2022-08-17T13:00:02.265Z,101703
2022-08-17T13:01:02.681Z,101701
2022-08-17T13:01:56.886Z,101701
2022-08-17T13:03:00.621Z,101702
2022-08-17T13:04:00.314Z,101702
2022-08-17T13:04:59.229Z,101703
2022-08-17T13:07:59.012Z,101701
2022-08-17T13:12:00.466Z,101698
2022-08-17T13:12:57.090Z,101697
2022-08-17T13:14:57.708Z,101691
2022-08-17T13:16:00.117Z,101692
2022-08-17T13:17:00.023Z,101691
2022-08-17T13:18:08.099Z,101688
2022-08-17T13:19:06.060Z,101687
2022-08-17T13:19:56.622Z,101687
2022-08-17T13:20:59.884Z,101684
2022-08-17T13:22:00.109Z,101686
2022-08-17T13:24:01.570Z,101686
2022-08-17T13:25:58.452Z,101688
2022-08-17T13:31:14.396Z,101682
2022-08-17T13:35:12.900Z,101669
2022-08-17T13:38:01.617Z,101674
2022-08-17T13:39:14.418Z,101677
2022-08-17T13:40:00.080Z,101676
2022-08-17T13:40:56.401Z,101676
2022-08-17T13:41:56.437Z,101674
2022-08-17T13:42:57.988Z,101676
2022-08-17T13:43:56.444Z,101678
2022-08-17T13:44:56.490Z,101681
2022-08-17T13:46:10.117Z,101683
2022-08-17T13:46:57.308Z,101685
2022-08-17T13:49:05.775Z,101688
2022-08-17T13:54:01.549Z,101688
2022-08-17T14:05:56.539Z,101675
2022-08-17T14:06:59.003Z,101673
2022-08-17T14:07:59.003Z,101673
2022-08-17T14:08:57.228Z,101673
2022-08-17T14:10:59.542Z,101679
2022-08-17T14:12:56.911Z,101674
2022-08-17T14:13:56.345Z,101675
2022-08-17T14:14:57.149Z,101683
2022-08-17T14:15:56.890Z,101684
2022-08-17T14:16:57.675Z,101686
2022-08-17T14:17:56.704Z,101684
2022-08-17T14:18:57.535Z,101686
2022-08-17T14:19:56.599Z,101687
2022-08-17T14:21:59.047Z,101685
2022-08-17T14:24:56.576Z,101676
2022-08-17T14:29:58.193Z,101669
2022-08-17T14:30:56.439Z,101664
2022-08-17T14:32:56.701Z,101662
2022-08-17T14:33:56.426Z,101665
2022-08-17T14:34:57.861Z,101660
2022-08-17T14:35:57.755Z,101661
2022-08-17T14:36:57.153Z,101664
2022-08-17T14:37:57.486Z,101664
2022-08-17T14:38:56.568Z,101667
2022-08-17T14:40:56.812Z,101668
2022-08-17T14:42:58.067Z,101670
2022-08-17T14:43:56.357Z,101670
2022-08-17T14:44:58.794Z,101665
2022-08-17T14:45:56.348Z,101663
2022-08-17T14:46:56.633Z,101667
2022-08-17T14:47:56.369Z,101663
2022-08-17T14:48:57.497Z,101664
2022-08-17T14:49:56.326Z,101662
2022-08-17T14:54:57.203Z,101655
2022-08-17T14:57:04.663Z,101653
2022-08-17T14:57:56.345Z,101648
2022-08-17T14:58:56.575Z,101645
2022-08-17T15:05:02.051Z,101634
2022-08-17T15:07:56.332Z,101631
2022-08-17T15:08:56.348Z,101629
2022-08-17T15:09:56.853Z,101632
2022-08-17T15:10:56.345Z,101639
2022-08-17T15:11:56.848Z,101643
2022-08-17T15:13:56.314Z,101647
2022-08-17T15:15:56.952Z,101652
2022-08-17T15:16:56.521Z,101655
2022-08-17T15:17:56.894Z,101656
2022-08-17T15:18:56.287Z,101661
2022-08-17T15:21:56.356Z,101658
2022-08-17T15:23:56.367Z,101656
2022-08-17T15:25:56.420Z,101650
2022-08-17T15:26:56.462Z,101644
2022-08-17T15:27:56.396Z,101641
2022-08-17T15:28:57.446Z,101639
2022-08-17T15:29:56.607Z,101639
2022-08-17T15:32:00.458Z,101635
2022-08-17T15:32:59.499Z,101631
2022-08-17T15:36:56.393Z,101617
2022-08-17T15:46:01.916Z,101582
2022-08-17T15:46:56.308Z,101580
2022-08-17T15:48:59.056Z,101572
2022-08-17T15:50:00.018Z,101573
2022-08-17T15:52:59.233Z,101571
2022-08-17T15:53:59.770Z,101575
2022-08-17T15:54:59.896Z,101576
2022-08-17T15:55:56.269Z,101573